sensor_id;sensor_type;location;lat;lon;timestamp;P1;durP1;ratioP1;P2;durP2;ratioP2
56045;SDS011;41913;51.030;3.706;2023-02-01T00:02:02;2.08;;;1.77;;
56045;SDS011;41913;51.030;3.706;2023-02-01T00:04:28;1.42;;;1.33;;
56045;SDS011;41913;51.030;3.706;2023-02-01T00:06:54;1.45;;;1.35;;
56045;SDS011;41913;51.030;3.706;2023-02-01T00:09:19;2.45;;;1.63;;
56045;SDS011;41913;51.030;3.706;2023-02-01T00:11:47;2.35;;;1.38;;
56045;SDS011;41913;51.030;3.706;2023-02-01T00:14:13;1.80;;;1.48;;
56045;SDS011;41913;51.030;3.706;2023-02-01T00:16:38;2.08;;;1.50;;
56045;SDS011;41913;51.030;3.706;2023-02-01T00:19:06;2.33;;;1.33;;
56045;SDS011;41913;51.030;3.706;2023-02-01T00:21:36;2.58;;;2.13;;
56045;SDS011;41913;51.030;3.706;2023-02-01T00:24:03;2.05;;;1.25;;
56045;SDS011;41913;51.030;3.706;2023-02-01T00:28:59;2.05;;;1.65;;
56045;SDS011;41913;51.030;3.706;2023-02-01T00:31:27;2.47;;;1.40;;
56045;SDS011;41913;51.030;3.706;2023-02-01T00:33:53;1.38;;;0.95;;
56045;SDS011;41913;51.030;3.706;2023-02-01T00:36:18;1.92;;;1.35;;
56045;SDS011;41913;51.030;3.706;2023-02-01T00:38:44;2.17;;;1.70;;
56045;SDS011;41913;51.030;3.706;2023-02-01T00:41:11;2.47;;;1.75;;
56045;SDS011;41913;51.030;3.706;2023-02-01T00:43:41;2.88;;;1.95;;
56045;SDS011;41913;51.030;3.706;2023-02-01T00:46:07;2.17;;;1.33;;
56045;SDS011;41913;51.030;3.706;2023-02-01T00:48:35;1.60;;;1.33;;
56045;SDS011;41913;51.030;3.706;2023-02-01T00:51:05;1.40;;;1.20;;
56045;SDS011;41913;51.030;3.706;2023-02-01T00:53:33;1.77;;;1.48;;
56045;SDS011;41913;51.030;3.706;2023-02-01T00:56:05;2.83;;;1.70;;
56045;SDS011;41913;51.030;3.706;2023-02-01T00:58:32;3.77;;;1.57;;
56045;SDS011;41913;51.030;3.706;2023-02-01T01:01:08;1.67;;;1.58;;
56045;SDS011;41913;51.030;3.706;2023-02-01T01:03:38;1.63;;;1.52;;
56045;SDS011;41913;51.030;3.706;2023-02-01T01:06:06;2.20;;;1.60;;
56045;SDS011;41913;51.030;3.706;2023-02-01T01:08:37;2.05;;;1.30;;
56045;SDS011;41913;51.030;3.706;2023-02-01T01:11:07;2.63;;;2.00;;
56045;SDS011;41913;51.030;3.706;2023-02-01T01:13:35;1.60;;;1.48;;
56045;SDS011;41913;51.030;3.706;2023-02-01T01:16:04;2.22;;;2.00;;
56045;SDS011;41913;51.030;3.706;2023-02-01T01:18:34;1.67;;;1.30;;
56045;SDS011;41913;51.030;3.706;2023-02-01T01:21:00;3.05;;;1.65;;
56045;SDS011;41913;51.030;3.706;2023-02-01T01:23:27;4.03;;;1.55;;
56045;SDS011;41913;51.030;3.706;2023-02-01T01:25:59;2.13;;;1.80;;
56045;SDS011;41913;51.030;3.706;2023-02-01T01:28:27;1.20;;;1.10;;
56045;SDS011;41913;51.030;3.706;2023-02-01T01:30:53;2.00;;;1.50;;
56045;SDS011;41913;51.030;3.706;2023-02-01T01:33:20;4.05;;;1.80;;
56045;SDS011;41913;51.030;3.706;2023-02-01T01:35:46;1.65;;;1.50;;
56045;SDS011;41913;51.030;3.706;2023-02-01T01:38:11;2.75;;;1.63;;
56045;SDS011;41913;51.030;3.706;2023-02-01T01:40:37;1.75;;;1.27;;
56045;SDS011;41913;51.030;3.706;2023-02-01T01:43:03;2.05;;;1.40;;
56045;SDS011;41913;51.030;3.706;2023-02-01T01:45:31;1.65;;;1.52;;
56045;SDS011;41913;51.030;3.706;2023-02-01T01:48:04;3.70;;;1.90;;
56045;SDS011;41913;51.030;3.706;2023-02-01T01:50:40;2.00;;;1.60;;
56045;SDS011;41913;51.030;3.706;2023-02-01T01:53:13;2.63;;;1.50;;
56045;SDS011;41913;51.030;3.706;2023-02-01T01:55:44;2.30;;;1.33;;
56045;SDS011;41913;51.030;3.706;2023-02-01T01:58:14;2.60;;;1.30;;
56045;SDS011;41913;51.030;3.706;2023-02-01T02:00:44;2.13;;;1.70;;
56045;SDS011;41913;51.030;3.706;2023-02-01T02:05:39;1.70;;;1.60;;
56045;SDS011;41913;51.030;3.706;2023-02-01T02:08:05;2.13;;;1.63;;
56045;SDS011;41913;51.030;3.706;2023-02-01T02:10:30;2.05;;;1.55;;
56045;SDS011;41913;51.030;3.706;2023-02-01T02:13:15;2.17;;;1.83;;
56045;SDS011;41913;51.030;3.706;2023-02-01T02:15:45;2.70;;;1.48;;
56045;SDS011;41913;51.030;3.706;2023-02-01T02:18:26;3.08;;;1.55;;
56045;SDS011;41913;51.030;3.706;2023-02-01T02:45:51;2.65;;;1.55;;
56045;SDS011;41913;51.030;3.706;2023-02-01T02:51:32;2.63;;;1.70;;
56045;SDS011;41913;51.030;3.706;2023-02-01T02:54:22;1.60;;;1.50;;
56045;SDS011;41913;51.030;3.706;2023-02-01T02:57:12;2.28;;;1.88;;
56045;SDS011;41913;51.030;3.706;2023-02-01T03:00:24;1.88;;;1.25;;
56045;SDS011;41913;51.030;3.706;2023-02-01T03:03:12;3.80;;;2.00;;
56045;SDS011;41913;51.030;3.706;2023-02-01T03:05:57;2.20;;;2.00;;
56045;SDS011;41913;51.030;3.706;2023-02-01T03:08:24;2.90;;;1.95;;
56045;SDS011;41913;51.030;3.706;2023-02-01T03:16:24;2.63;;;1.50;;
56045;SDS011;41913;51.030;3.706;2023-02-01T03:19:02;5.45;;;1.55;;
56045;SDS011;41913;51.030;3.706;2023-02-01T03:21:41;3.97;;;1.58;;
56045;SDS011;41913;51.030;3.706;2023-02-01T03:24:18;2.60;;;1.38;;
56045;SDS011;41913;51.030;3.706;2023-02-01T03:27:01;3.10;;;1.83;;
56045;SDS011;41913;51.030;3.706;2023-02-01T03:29:41;1.38;;;1.05;;
56045;SDS011;41913;51.030;3.706;2023-02-01T03:32:14;1.60;;;1.20;;
56045;SDS011;41913;51.030;3.706;2023-02-01T03:34:40;1.55;;;1.40;;
56045;SDS011;41913;51.030;3.706;2023-02-01T03:37:10;3.33;;;1.33;;
56045;SDS011;41913;51.030;3.706;2023-02-01T03:42:43;2.33;;;1.75;;
56045;SDS011;41913;51.030;3.706;2023-02-01T03:45:18;3.42;;;1.70;;
56045;SDS011;41913;51.030;3.706;2023-02-01T03:47:46;1.30;;;1.00;;
56045;SDS011;41913;51.030;3.706;2023-02-01T03:50:21;2.15;;;1.70;;
56045;SDS011;41913;51.030;3.706;2023-02-01T03:53:09;3.40;;;1.58;;
56045;SDS011;41913;51.030;3.706;2023-02-01T03:55:39;2.72;;;1.42;;
56045;SDS011;41913;51.030;3.706;2023-02-01T03:58:10;1.23;;;1.13;;
56045;SDS011;41913;51.030;3.706;2023-02-01T04:00:43;1.80;;;1.48;;
56045;SDS011;41913;51.030;3.706;2023-02-01T04:03:11;1.73;;;1.60;;
56045;SDS011;41913;51.030;3.706;2023-02-01T04:05:36;2.13;;;1.40;;
56045;SDS011;41913;51.030;3.706;2023-02-01T04:08:05;2.47;;;1.58;;
56045;SDS011;41913;51.030;3.706;2023-02-01T04:10:32;4.38;;;1.52;;
56045;SDS011;41913;51.030;3.706;2023-02-01T04:12:58;2.63;;;1.60;;
56045;SDS011;41913;51.030;3.706;2023-02-01T04:15:23;1.52;;;1.23;;
56045;SDS011;41913;51.030;3.706;2023-02-01T04:17:50;1.38;;;1.27;;
56045;SDS011;41913;51.030;3.706;2023-02-01T04:20:17;2.47;;;1.48;;
56045;SDS011;41913;51.030;3.706;2023-02-01T04:22:43;2.42;;;1.63;;
56045;SDS011;41913;51.030;3.706;2023-02-01T04:25:09;3.22;;;1.42;;
56045;SDS011;41913;51.030;3.706;2023-02-01T04:27:35;2.53;;;1.92;;
56045;SDS011;41913;51.030;3.706;2023-02-01T04:30:01;2.97;;;1.48;;
56045;SDS011;41913;51.030;3.706;2023-02-01T04:32:27;4.07;;;1.52;;
56045;SDS011;41913;51.030;3.706;2023-02-01T04:34:53;3.47;;;1.70;;
56045;SDS011;41913;51.030;3.706;2023-02-01T04:37:20;2.13;;;1.58;;
56045;SDS011;41913;51.030;3.706;2023-02-01T04:39:45;3.38;;;1.90;;
56045;SDS011;41913;51.030;3.706;2023-02-01T04:42:11;2.88;;;1.60;;
56045;SDS011;41913;51.030;3.706;2023-02-01T04:44:37;1.38;;;1.27;;
56045;SDS011;41913;51.030;3.706;2023-02-01T04:47:06;2.55;;;1.38;;
56045;SDS011;41913;51.030;3.706;2023-02-01T04:49:33;3.22;;;1.70;;
56045;SDS011;41913;51.030;3.706;2023-02-01T04:51:59;2.00;;;1.55;;
56045;SDS011;41913;51.030;3.706;2023-02-01T04:54:24;1.63;;;1.25;;
56045;SDS011;41913;51.030;3.706;2023-02-01T04:56:50;3.67;;;1.38;;
56045;SDS011;41913;51.030;3.706;2023-02-01T04:59:17;1.95;;;1.50;;
56045;SDS011;41913;51.030;3.706;2023-02-01T05:01:43;2.47;;;1.77;;
56045;SDS011;41913;51.030;3.706;2023-02-01T05:04:09;2.35;;;1.27;;
56045;SDS011;41913;51.030;3.706;2023-02-01T05:06:35;2.10;;;1.15;;
56045;SDS011;41913;51.030;3.706;2023-02-01T05:09:00;3.50;;;1.58;;
56045;SDS011;41913;51.030;3.706;2023-02-01T05:11:26;2.80;;;2.25;;
56045;SDS011;41913;51.030;3.706;2023-02-01T05:14:10;3.35;;;1.20;;
56045;SDS011;41913;51.030;3.706;2023-02-01T05:16:37;2.25;;;1.65;;
56045;SDS011;41913;51.030;3.706;2023-02-01T05:19:03;2.40;;;1.50;;
56045;SDS011;41913;51.030;3.706;2023-02-01T05:21:28;4.03;;;1.67;;
56045;SDS011;41913;51.030;3.706;2023-02-01T05:23:54;1.73;;;1.60;;
56045;SDS011;41913;51.030;3.706;2023-02-01T05:26:35;1.58;;;1.38;;
56045;SDS011;41913;51.030;3.706;2023-02-01T05:29:03;2.47;;;1.65;;
56045;SDS011;41913;51.030;3.706;2023-02-01T05:31:29;2.28;;;1.58;;
56045;SDS011;41913;51.030;3.706;2023-02-01T05:33:55;1.75;;;1.50;;
56045;SDS011;41913;51.030;3.706;2023-02-01T05:36:21;4.05;;;1.45;;
56045;SDS011;41913;51.030;3.706;2023-02-01T05:38:46;1.50;;;1.30;;
56045;SDS011;41913;51.030;3.706;2023-02-01T05:41:12;1.65;;;1.48;;
56045;SDS011;41913;51.030;3.706;2023-02-01T05:43:37;2.00;;;1.45;;
56045;SDS011;41913;51.030;3.706;2023-02-01T05:46:03;1.73;;;1.25;;
56045;SDS011;41913;51.030;3.706;2023-02-01T05:48:30;2.28;;;1.30;;
56045;SDS011;41913;51.030;3.706;2023-02-01T05:50:56;2.42;;;1.92;;
56045;SDS011;41913;51.030;3.706;2023-02-01T05:53:22;2.50;;;1.50;;
56045;SDS011;41913;51.030;3.706;2023-02-01T05:55:47;2.58;;;1.45;;
56045;SDS011;41913;51.030;3.706;2023-02-01T05:58:13;1.80;;;1.70;;
56045;SDS011;41913;51.030;3.706;2023-02-01T06:00:39;2.38;;;1.73;;
56045;SDS011;41913;51.030;3.706;2023-02-01T06:03:10;2.75;;;1.60;;
56045;SDS011;41913;51.030;3.706;2023-02-01T06:05:36;2.13;;;1.42;;
56045;SDS011;41913;51.030;3.706;2023-02-01T06:08:02;1.98;;;1.40;;
56045;SDS011;41913;51.030;3.706;2023-02-01T06:10:28;2.65;;;1.70;;
56045;SDS011;41913;51.030;3.706;2023-02-01T06:12:53;4.15;;;2.20;;
56045;SDS011;41913;51.030;3.706;2023-02-01T06:15:19;3.22;;;1.67;;
56045;SDS011;41913;51.030;3.706;2023-02-01T06:17:45;3.25;;;1.80;;
56045;SDS011;41913;51.030;3.706;2023-02-01T06:20:14;1.58;;;1.42;;
56045;SDS011;41913;51.030;3.706;2023-02-01T06:22:41;3.95;;;1.90;;
56045;SDS011;41913;51.030;3.706;2023-02-01T06:25:08;7.93;;;2.47;;
56045;SDS011;41913;51.030;3.706;2023-02-01T06:27:35;8.98;;;3.15;;
56045;SDS011;41913;51.030;3.706;2023-02-01T06:30:03;21.25;;;4.43;;
56045;SDS011;41913;51.030;3.706;2023-02-01T06:32:30;25.05;;;4.53;;
56045;SDS011;41913;51.030;3.706;2023-02-01T06:34:56;18.83;;;4.60;;
56045;SDS011;41913;51.030;3.706;2023-02-01T06:37:22;9.20;;;3.20;;
56045;SDS011;41913;51.030;3.706;2023-02-01T06:39:50;7.03;;;2.45;;
56045;SDS011;41913;51.030;3.706;2023-02-01T06:42:16;7.50;;;2.13;;
56045;SDS011;41913;51.030;3.706;2023-02-01T06:44:41;10.95;;;2.28;;
56045;SDS011;41913;51.030;3.706;2023-02-01T06:47:08;2.25;;;1.65;;
56045;SDS011;41913;51.030;3.706;2023-02-01T06:49:34;2.30;;;1.75;;
56045;SDS011;41913;51.030;3.706;2023-02-01T06:51:59;5.13;;;1.77;;
56045;SDS011;41913;51.030;3.706;2023-02-01T06:54:25;3.35;;;1.35;;
56045;SDS011;41913;51.030;3.706;2023-02-01T06:56:52;5.65;;;2.22;;
56045;SDS011;41913;51.030;3.706;2023-02-01T06:59:17;5.00;;;1.58;;
56045;SDS011;41913;51.030;3.706;2023-02-01T07:01:43;7.65;;;1.88;;
56045;SDS011;41913;51.030;3.706;2023-02-01T07:04:12;5.05;;;1.58;;
56045;SDS011;41913;51.030;3.706;2023-02-01T07:06:38;2.30;;;1.00;;
56045;SDS011;41913;51.030;3.706;2023-02-01T07:09:05;6.55;;;1.92;;
56045;SDS011;41913;51.030;3.706;2023-02-01T07:11:31;2.63;;;1.58;;
56045;SDS011;41913;51.030;3.706;2023-02-01T07:13:57;2.75;;;1.30;;
56045;SDS011;41913;51.030;3.706;2023-02-01T07:18:52;5.00;;;2.00;;
56045;SDS011;41913;51.030;3.706;2023-02-01T07:21:18;5.47;;;1.50;;
56045;SDS011;41913;51.030;3.706;2023-02-01T07:23:44;2.22;;;1.20;;
56045;SDS011;41913;51.030;3.706;2023-02-01T07:26:12;2.42;;;1.55;;
56045;SDS011;41913;51.030;3.706;2023-02-01T07:28:39;2.90;;;1.17;;
56045;SDS011;41913;51.030;3.706;2023-02-01T07:31:06;6.68;;;1.92;;
56045;SDS011;41913;51.030;3.706;2023-02-01T07:33:34;5.47;;;2.03;;
56045;SDS011;41913;51.030;3.706;2023-02-01T07:36:00;4.63;;;1.73;;
56045;SDS011;41913;51.030;3.706;2023-02-01T07:38:28;2.55;;;2.00;;
56045;SDS011;41913;51.030;3.706;2023-02-01T07:41:00;4.25;;;1.80;;
56045;SDS011;41913;51.030;3.706;2023-02-01T07:43:28;5.45;;;1.70;;
56045;SDS011;41913;51.030;3.706;2023-02-01T07:45:55;4.10;;;1.83;;
56045;SDS011;41913;51.030;3.706;2023-02-01T07:48:21;7.75;;;1.92;;
56045;SDS011;41913;51.030;3.706;2023-02-01T07:50:48;19.48;;;3.60;;
56045;SDS011;41913;51.030;3.706;2023-02-01T07:53:21;12.82;;;2.63;;
56045;SDS011;41913;51.030;3.706;2023-02-01T07:55:47;7.25;;;2.10;;
56045;SDS011;41913;51.030;3.706;2023-02-01T07:58:13;10.55;;;2.60;;
56045;SDS011;41913;51.030;3.706;2023-02-01T08:00:38;5.60;;;2.47;;
56045;SDS011;41913;51.030;3.706;2023-02-01T08:03:23;7.32;;;2.00;;
56045;SDS011;41913;51.030;3.706;2023-02-01T08:05:55;3.33;;;1.60;;
56045;SDS011;41913;51.030;3.706;2023-02-01T08:08:22;4.07;;;2.20;;
56045;SDS011;41913;51.030;3.706;2023-02-01T08:10:48;4.05;;;1.63;;
56045;SDS011;41913;51.030;3.706;2023-02-01T08:13:15;7.80;;;2.35;;
56045;SDS011;41913;51.030;3.706;2023-02-01T08:15:41;4.47;;;2.20;;
56045;SDS011;41913;51.030;3.706;2023-02-01T08:18:08;5.65;;;2.00;;
56045;SDS011;41913;51.030;3.706;2023-02-01T08:20:36;6.63;;;2.00;;
56045;SDS011;41913;51.030;3.706;2023-02-01T08:23:10;5.88;;;2.58;;
56045;SDS011;41913;51.030;3.706;2023-02-01T08:25:38;7.07;;;2.47;;
56045;SDS011;41913;51.030;3.706;2023-02-01T08:28:12;7.40;;;2.70;;
56045;SDS011;41913;51.030;3.706;2023-02-01T08:30:41;6.10;;;2.15;;
56045;SDS011;41913;51.030;3.706;2023-02-01T08:33:10;9.35;;;2.97;;
56045;SDS011;41913;51.030;3.706;2023-02-01T08:35:37;3.67;;;2.13;;
56045;SDS011;41913;51.030;3.706;2023-02-01T08:38:03;8.98;;;2.70;;
56045;SDS011;41913;51.030;3.706;2023-02-01T08:40:28;3.90;;;2.17;;
56045;SDS011;41913;51.030;3.706;2023-02-01T08:42:54;8.77;;;2.50;;
56045;SDS011;41913;51.030;3.706;2023-02-01T08:45:21;4.22;;;2.13;;
56045;SDS011;41913;51.030;3.706;2023-02-01T08:47:53;6.35;;;2.33;;
56045;SDS011;41913;51.030;3.706;2023-02-01T08:50:20;4.45;;;2.22;;
56045;SDS011;41913;51.030;3.706;2023-02-01T08:52:46;5.65;;;2.72;;
56045;SDS011;41913;51.030;3.706;2023-02-01T08:55:13;9.40;;;2.85;;
56045;SDS011;41913;51.030;3.706;2023-02-01T08:57:41;6.13;;;2.47;;
56045;SDS011;41913;51.030;3.706;2023-02-01T09:00:14;5.95;;;2.63;;
56045;SDS011;41913;51.030;3.706;2023-02-01T09:02:43;1.85;;;1.52;;
56045;SDS011;41913;51.030;3.706;2023-02-01T09:05:12;5.80;;;2.05;;
56045;SDS011;41913;51.030;3.706;2023-02-01T09:07:42;5.97;;;2.55;;
56045;SDS011;41913;51.030;3.706;2023-02-01T09:10:10;4.85;;;1.90;;
56045;SDS011;41913;51.030;3.706;2023-02-01T09:12:40;2.63;;;1.70;;
56045;SDS011;41913;51.030;3.706;2023-02-01T09:15:07;3.38;;;2.05;;
56045;SDS011;41913;51.030;3.706;2023-02-01T09:17:40;3.50;;;2.25;;
56045;SDS011;41913;51.030;3.706;2023-02-01T09:20:09;6.72;;;1.83;;
56045;SDS011;41913;51.030;3.706;2023-02-01T09:22:35;6.40;;;1.70;;
56045;SDS011;41913;51.030;3.706;2023-02-01T09:25:01;4.90;;;1.95;;
56045;SDS011;41913;51.030;3.706;2023-02-01T09:27:29;4.80;;;2.28;;
56045;SDS011;41913;51.030;3.706;2023-02-01T09:29:54;4.53;;;1.98;;
56045;SDS011;41913;51.030;3.706;2023-02-01T09:32:23;5.40;;;1.70;;
56045;SDS011;41913;51.030;3.706;2023-02-01T09:34:49;4.53;;;1.75;;
56045;SDS011;41913;51.030;3.706;2023-02-01T09:37:17;4.22;;;1.77;;
56045;SDS011;41913;51.030;3.706;2023-02-01T09:39:43;3.33;;;1.73;;
56045;SDS011;41913;51.030;3.706;2023-02-01T09:47:36;2.85;;;1.58;;
56045;SDS011;41913;51.030;3.706;2023-02-01T09:50:18;2.55;;;1.80;;
56045;SDS011;41913;51.030;3.706;2023-02-01T09:52:52;4.72;;;1.27;;
56045;SDS011;41913;51.030;3.706;2023-02-01T09:55:30;4.15;;;2.03;;
56045;SDS011;41913;51.030;3.706;2023-02-01T10:01:00;5.03;;;2.13;;
56045;SDS011;41913;51.030;3.706;2023-02-01T10:03:28;4.72;;;1.90;;
56045;SDS011;41913;51.030;3.706;2023-02-01T10:06:03;8.07;;;1.88;;
56045;SDS011;41913;51.030;3.706;2023-02-01T10:08:58;3.40;;;1.60;;
56045;SDS011;41913;51.030;3.706;2023-02-01T10:18:15;6.80;;;2.60;;
56045;SDS011;41913;51.030;3.706;2023-02-01T10:20:56;4.90;;;2.13;;
56045;SDS011;41913;51.030;3.706;2023-02-01T10:28:52;3.53;;;2.10;;
56045;SDS011;41913;51.030;3.706;2023-02-01T10:31:25;8.45;;;1.75;;
56045;SDS011;41913;51.030;3.706;2023-02-01T10:34:00;3.40;;;1.50;;
56045;SDS011;41913;51.030;3.706;2023-02-01T10:36:41;4.00;;;1.92;;
56045;SDS011;41913;51.030;3.706;2023-02-01T10:39:15;5.20;;;1.85;;
56045;SDS011;41913;51.030;3.706;2023-02-01T10:41:43;2.95;;;1.40;;
56045;SDS011;41913;51.030;3.706;2023-02-01T10:44:10;2.22;;;1.80;;
56045;SDS011;41913;51.030;3.706;2023-02-01T10:46:42;6.53;;;2.35;;
56045;SDS011;41913;51.030;3.706;2023-02-01T10:52:07;1.58;;;1.40;;
56045;SDS011;41913;51.030;3.706;2023-02-01T10:54:45;7.27;;;2.20;;
56045;SDS011;41913;51.030;3.706;2023-02-01T10:57:32;9.13;;;2.67;;
56045;SDS011;41913;51.030;3.706;2023-02-01T11:00:02;4.38;;;1.77;;
56045;SDS011;41913;51.030;3.706;2023-02-01T11:02:44;4.45;;;1.77;;
56045;SDS011;41913;51.030;3.706;2023-02-01T11:05:10;4.15;;;2.30;;
56045;SDS011;41913;51.030;3.706;2023-02-01T11:07:37;5.95;;;1.73;;
56045;SDS011;41913;51.030;3.706;2023-02-01T11:10:15;7.85;;;2.40;;
56045;SDS011;41913;51.030;3.706;2023-02-01T11:13:11;8.40;;;2.65;;
56045;SDS011;41913;51.030;3.706;2023-02-01T11:15:42;6.60;;;1.98;;
56045;SDS011;41913;51.030;3.706;2023-02-01T11:18:21;6.95;;;2.10;;
56045;SDS011;41913;51.030;3.706;2023-02-01T11:20:54;6.10;;;2.28;;
56045;SDS011;41913;51.030;3.706;2023-02-01T11:23:24;5.38;;;2.10;;
56045;SDS011;41913;51.030;3.706;2023-02-01T11:26:07;3.47;;;1.98;;
56045;SDS011;41913;51.030;3.706;2023-02-01T11:28:46;3.22;;;1.73;;
56045;SDS011;41913;51.030;3.706;2023-02-01T11:31:26;2.15;;;1.63;;
56045;SDS011;41913;51.030;3.706;2023-02-01T11:33:53;4.57;;;1.77;;
56045;SDS011;41913;51.030;3.706;2023-02-01T11:36:26;5.00;;;2.25;;
56045;SDS011;41913;51.030;3.706;2023-02-01T11:39:18;3.90;;;1.75;;
56045;SDS011;41913;51.030;3.706;2023-02-01T11:44:40;5.60;;;1.60;;
56045;SDS011;41913;51.030;3.706;2023-02-01T11:49:55;4.45;;;1.92;;
56045;SDS011;41913;51.030;3.706;2023-02-01T11:52:32;3.88;;;2.08;;
56045;SDS011;41913;51.030;3.706;2023-02-01T11:55:30;4.47;;;1.27;;
56045;SDS011;41913;51.030;3.706;2023-02-01T11:58:20;6.30;;;1.83;;
56045;SDS011;41913;51.030;3.706;2023-02-01T12:01:07;4.80;;;1.77;;
56045;SDS011;41913;51.030;3.706;2023-02-01T12:12:20;4.05;;;1.20;;
56045;SDS011;41913;51.030;3.706;2023-02-01T12:15:04;4.40;;;1.98;;
56045;SDS011;41913;51.030;3.706;2023-02-01T12:26:33;4.07;;;1.60;;
56045;SDS011;41913;51.030;3.706;2023-02-01T12:29:13;3.13;;;1.70;;
56045;SDS011;41913;51.030;3.706;2023-02-01T12:31:55;2.85;;;1.38;;
56045;SDS011;41913;51.030;3.706;2023-02-01T12:34:27;2.58;;;1.48;;
56045;SDS011;41913;51.030;3.706;2023-02-01T12:42:25;2.10;;;1.70;;
56045;SDS011;41913;51.030;3.706;2023-02-01T12:53:17;5.63;;;1.70;;
56045;SDS011;41913;51.030;3.706;2023-02-01T12:55:53;2.75;;;1.23;;
56045;SDS011;41913;51.030;3.706;2023-02-01T12:58:26;1.42;;;1.05;;
56045;SDS011;41913;51.030;3.706;2023-02-01T13:01:02;1.83;;;0.95;;
56045;SDS011;41913;51.030;3.706;2023-02-01T13:03:38;2.80;;;1.27;;
56045;SDS011;41913;51.030;3.706;2023-02-01T13:06:23;0.90;;;0.77;;
56045;SDS011;41913;51.030;3.706;2023-02-01T13:12:16;4.10;;;1.52;;
56045;SDS011;41913;51.030;3.706;2023-02-01T13:17:29;3.00;;;1.15;;
56045;SDS011;41913;51.030;3.706;2023-02-01T13:20:18;2.03;;;1.05;;
56045;SDS011;41913;51.030;3.706;2023-02-01T13:23:04;2.03;;;0.95;;
56045;SDS011;41913;51.030;3.706;2023-02-01T13:28:06;5.38;;;1.38;;
56045;SDS011;41913;51.030;3.706;2023-02-01T13:33:29;10.82;;;0.95;;
56045;SDS011;41913;51.030;3.706;2023-02-01T13:36:15;3.38;;;1.20;;
56045;SDS011;41913;51.030;3.706;2023-02-01T13:41:50;2.05;;;1.17;;
56045;SDS011;41913;51.030;3.706;2023-02-01T13:44:27;2.65;;;1.58;;
56045;SDS011;41913;51.030;3.706;2023-02-01T13:47:01;2.65;;;1.35;;
56045;SDS011;41913;51.030;3.706;2023-02-01T13:49:37;6.85;;;2.13;;
56045;SDS011;41913;51.030;3.706;2023-02-01T13:52:36;3.00;;;1.10;;
56045;SDS011;41913;51.030;3.706;2023-02-01T13:55:15;1.30;;;1.20;;
56045;SDS011;41913;51.030;3.706;2023-02-01T13:57:44;1.48;;;1.27;;
56045;SDS011;41913;51.030;3.706;2023-02-01T14:13:36;2.13;;;0.90;;
56045;SDS011;41913;51.030;3.706;2023-02-01T14:21:29;2.08;;;1.10;;
56045;SDS011;41913;51.030;3.706;2023-02-01T14:23:59;3.15;;;1.23;;
56045;SDS011;41913;51.030;3.706;2023-02-01T14:29:34;1.45;;;1.08;;
56045;SDS011;41913;51.030;3.706;2023-02-01T14:32:15;0.98;;;0.90;;
56045;SDS011;41913;51.030;3.706;2023-02-01T14:47:54;3.55;;;1.70;;
56045;SDS011;41913;51.030;3.706;2023-02-01T14:50:40;3.97;;;1.60;;
56045;SDS011;41913;51.030;3.706;2023-02-01T14:55:38;2.03;;;0.82;;
56045;SDS011;41913;51.030;3.706;2023-02-01T14:58:15;3.33;;;1.40;;
56045;SDS011;41913;51.030;3.706;2023-02-01T15:00:56;4.45;;;1.02;;
56045;SDS011;41913;51.030;3.706;2023-02-01T15:14:29;9.55;;;2.00;;
56045;SDS011;41913;51.030;3.706;2023-02-01T15:16:56;4.25;;;1.40;;
56045;SDS011;41913;51.030;3.706;2023-02-01T15:19:24;5.35;;;1.88;;
56045;SDS011;41913;51.030;3.706;2023-02-01T15:21:55;3.92;;;1.58;;
56045;SDS011;41913;51.030;3.706;2023-02-01T15:24:28;4.40;;;1.40;;
56045;SDS011;41913;51.030;3.706;2023-02-01T15:27:05;3.85;;;2.22;;
56045;SDS011;41913;51.030;3.706;2023-02-01T15:29:31;4.50;;;1.15;;
56045;SDS011;41913;51.030;3.706;2023-02-01T15:31:59;5.60;;;1.80;;
56045;SDS011;41913;51.030;3.706;2023-02-01T15:37:51;4.15;;;1.60;;
56045;SDS011;41913;51.030;3.706;2023-02-01T15:40:20;4.75;;;1.48;;
56045;SDS011;41913;51.030;3.706;2023-02-01T15:42:53;6.97;;;1.77;;
56045;SDS011;41913;51.030;3.706;2023-02-01T15:45:25;4.15;;;1.73;;
56045;SDS011;41913;51.030;3.706;2023-02-01T15:47:56;3.42;;;1.55;;
56045;SDS011;41913;51.030;3.706;2023-02-01T15:50:24;4.60;;;1.85;;
56045;SDS011;41913;51.030;3.706;2023-02-01T15:52:55;2.60;;;1.33;;
56045;SDS011;41913;51.030;3.706;2023-02-01T15:55:23;5.80;;;1.85;;
56045;SDS011;41913;51.030;3.706;2023-02-01T15:58:14;4.07;;;1.65;;
56045;SDS011;41913;51.030;3.706;2023-02-01T16:00:50;4.95;;;1.42;;
56045;SDS011;41913;51.030;3.706;2023-02-01T16:03:37;6.78;;;1.55;;
56045;SDS011;41913;51.030;3.706;2023-02-01T16:06:25;1.33;;;1.23;;
56045;SDS011;41913;51.030;3.706;2023-02-01T16:09:09;2.35;;;1.58;;
56045;SDS011;41913;51.030;3.706;2023-02-01T16:11:47;3.22;;;1.80;;
56045;SDS011;41913;51.030;3.706;2023-02-01T16:14:17;2.10;;;1.60;;
56045;SDS011;41913;51.030;3.706;2023-02-01T16:16:43;2.08;;;1.40;;
56045;SDS011;41913;51.030;3.706;2023-02-01T16:19:08;2.72;;;2.08;;
56045;SDS011;41913;51.030;3.706;2023-02-01T16:21:34;2.45;;;1.67;;
56045;SDS011;41913;51.030;3.706;2023-02-01T16:24:00;4.20;;;1.35;;
56045;SDS011;41913;51.030;3.706;2023-02-01T16:26:29;3.03;;;1.40;;
56045;SDS011;41913;51.030;3.706;2023-02-01T16:28:56;1.42;;;1.10;;
56045;SDS011;41913;51.030;3.706;2023-02-01T16:31:27;2.85;;;1.50;;
56045;SDS011;41913;51.030;3.706;2023-02-01T16:33:55;1.98;;;1.73;;
56045;SDS011;41913;51.030;3.706;2023-02-01T16:36:22;2.38;;;2.00;;
56045;SDS011;41913;51.030;3.706;2023-02-01T16:38:49;3.88;;;1.95;;
56045;SDS011;41913;51.030;3.706;2023-02-01T16:41:16;2.55;;;1.80;;
56045;SDS011;41913;51.030;3.706;2023-02-01T16:43:43;2.67;;;1.85;;
56045;SDS011;41913;51.030;3.706;2023-02-01T16:46:12;7.88;;;1.90;;
56045;SDS011;41913;51.030;3.706;2023-02-01T16:48:45;4.63;;;2.20;;
56045;SDS011;41913;51.030;3.706;2023-02-01T16:51:15;4.05;;;1.98;;
56045;SDS011;41913;51.030;3.706;2023-02-01T16:53:41;6.82;;;2.05;;
56045;SDS011;41913;51.030;3.706;2023-02-01T16:56:12;3.08;;;1.50;;
56045;SDS011;41913;51.030;3.706;2023-02-01T16:58:42;4.95;;;2.05;;
56045;SDS011;41913;51.030;3.706;2023-02-01T17:01:13;5.72;;;1.98;;
56045;SDS011;41913;51.030;3.706;2023-02-01T17:03:41;8.75;;;1.60;;
56045;SDS011;41913;51.030;3.706;2023-02-01T17:06:10;6.30;;;1.38;;
56045;SDS011;41913;51.030;3.706;2023-02-01T17:08:39;4.32;;;1.98;;
56045;SDS011;41913;51.030;3.706;2023-02-01T17:11:07;5.38;;;1.70;;
56045;SDS011;41913;51.030;3.706;2023-02-01T17:13:34;3.00;;;1.73;;
56045;SDS011;41913;51.030;3.706;2023-02-01T17:16:02;4.55;;;1.30;;
56045;SDS011;41913;51.030;3.706;2023-02-01T17:18:31;5.10;;;1.92;;
56045;SDS011;41913;51.030;3.706;2023-02-01T17:20:59;2.25;;;1.40;;
56045;SDS011;41913;51.030;3.706;2023-02-01T17:23:26;3.60;;;1.92;;
56045;SDS011;41913;51.030;3.706;2023-02-01T17:25:53;3.60;;;1.95;;
56045;SDS011;41913;51.030;3.706;2023-02-01T17:28:20;3.00;;;1.65;;
56045;SDS011;41913;51.030;3.706;2023-02-01T17:30:46;3.85;;;1.58;;
56045;SDS011;41913;51.030;3.706;2023-02-01T17:33:34;3.10;;;1.45;;
56045;SDS011;41913;51.030;3.706;2023-02-01T17:36:01;3.88;;;2.00;;
56045;SDS011;41913;51.030;3.706;2023-02-01T17:38:30;3.00;;;1.55;;
56045;SDS011;41913;51.030;3.706;2023-02-01T17:40:55;5.90;;;1.83;;
56045;SDS011;41913;51.030;3.706;2023-02-01T17:43:22;4.75;;;1.77;;
56045;SDS011;41913;51.030;3.706;2023-02-01T17:45:51;3.33;;;1.85;;
56045;SDS011;41913;51.030;3.706;2023-02-01T17:48:22;4.35;;;2.03;;
56045;SDS011;41913;51.030;3.706;2023-02-01T17:50:49;5.35;;;2.38;;
56045;SDS011;41913;51.030;3.706;2023-02-01T17:53:19;2.95;;;1.83;;
56045;SDS011;41913;51.030;3.706;2023-02-01T17:55:48;3.65;;;1.75;;
56045;SDS011;41913;51.030;3.706;2023-02-01T17:58:15;5.47;;;2.10;;
56045;SDS011;41913;51.030;3.706;2023-02-01T18:00:42;4.18;;;2.72;;